Time;durP1;ratioP1;P1;durP2;ratioP2;P2;SDS_P1;SDS_P2;PMS_P1;PMS_P2;Temp;Humidity;BMP_temperature;BMP_pressure;BME280_temperature;BME280_humidity;BME280_pressure;Samples;Min_cycle;Max_cycle;Signal;HPM_P1;HPM_P2
2022/08/31 00:05:10;;;;;;;5.30;4.03;;;;;;;21.26;56.51;96802.41;4898755;29;20493;-82
2022/08/31 00:07:38;;;;;;;4.53;4.00;;;;;;;21.25;52.03;96805.31;4901988;29;20048;-82
2022/08/31 00:10:13;;;;;;;5.60;4.30;;;;;;;21.24;53.03;96803.72;4902087;29;20083;-82
2022/08/31 00:12:41;;;;;;;5.10;3.90;;;;;;;21.23;53.21;96799.44;4902593;29;20489;-82
2022/08/31 00:15:13;;;;;;;4.43;4.03;;;;;;;21.23;51.90;96805.56;4902446;29;20055;-83
2022/08/31 00:17:41;;;;;;;6.70;4.00;;;;;;;21.18;51.69;96800.19;4902606;29;20535;-82
2022/08/31 00:20:12;;;;;;;5.25;3.80;;;;;;;21.15;51.80;96800.69;4901930;29;20526;-82
2022/08/31 00:23:00;;;;;;;3.88;3.58;;;;;;;21.13;52.12;96802.78;4888972;29;20422;-82
2022/08/31 00:25:27;;;;;;;6.22;4.22;;;;;;;21.09;52.00;96801.66;4902655;29;20451;-82
2022/08/31 00:27:55;;;;;;;5.78;3.80;;;;;;;21.09;53.89;96802.44;4902519;29;20083;-82
2022/08/31 00:30:23;;;;;;;5.03;4.03;;;;;;;21.08;53.22;96803.50;4901908;29;20049;-82
2022/08/31 00:32:51;;;;;;;4.97;3.92;;;;;;;21.04;53.00;96793.63;4902264;29;20148;-81
2022/08/31 00:35:20;;;;;;;6.25;3.90;;;;;;;20.99;52.71;96797.81;4903209;29;20551;-80
2022/08/31 00:37:48;;;;;;;6.05;4.28;;;;;;;20.97;52.81;96794.59;4903148;29;20105;-80
2022/08/31 00:40:16;;;;;;;4.85;4.03;;;;;;;20.93;52.79;96788.16;4902218;29;20139;-80
2022/08/31 00:42:43;;;;;;;5.95;4.38;;;;;;;20.92;53.10;96796.34;4902656;29;20080;-80
2022/08/31 00:45:11;;;;;;;4.40;4.00;;;;;;;20.91;53.47;96797.41;4903182;29;20455;-80
2022/08/31 00:47:39;;;;;;;5.45;4.03;;;;;;;20.87;53.01;96797.09;4902751;29;20507;-80
2022/08/31 00:50:10;;;;;;;6.78;4.40;;;;;;;20.83;53.17;96798.63;4902159;29;20092;-80
2022/08/31 00:52:44;;;;;;;5.75;4.18;;;;;;;20.79;53.33;96797.50;4903173;29;20068;-80
2022/08/31 00:55:16;;;;;;;7.22;4.53;;;;;;;20.74;53.15;96789.47;4903550;29;20063;-80
2022/08/31 00:57:47;;;;;;;6.53;4.25;;;;;;;20.71;53.88;96774.06;4902329;29;20063;-80
2022/08/31 01:00:19;;;;;;;5.93;4.50;;;;;;;20.69;53.66;96782.25;4902493;29;20076;-80
2022/08/31 01:02:47;;;;;;;9.35;5.03;;;;;;;20.65;53.79;96775.81;4901611;29;20116;-83
2022/08/31 01:05:16;;;;;;;7.05;4.20;;;;;;;20.63;53.83;96774.47;4901470;29;20100;-82
2022/08/31 01:07:46;;;;;;;7.07;4.90;;;;;;;20.61;53.98;96784.50;4900878;29;20080;-82
2022/08/31 01:10:16;;;;;;;7.07;4.63;;;;;;;20.58;54.13;96780.47;4900862;29;20135;-82
2022/08/31 01:12:47;;;;;;;6.72;4.07;;;;;;;20.55;54.34;96776.44;4901090;29;20080;-82
2022/08/31 01:15:17;;;;;;;6.22;4.80;;;;;;;20.52;54.49;96778.75;4900799;29;20048;-82
2022/08/31 01:17:47;;;;;;;6.20;4.47;;;;;;;20.51;54.95;96783.25;4899927;29;20116;-82
2022/08/31 01:20:22;;;;;;;4.55;3.70;;;;;;;20.50;55.00;96781.63;4900485;29;20121;-82
2022/08/31 01:23:05;;;;;;;6.97;4.80;;;;;;;20.45;54.92;96778.91;4901046;29;20135;-82
2022/08/31 01:25:35;;;;;;;6.55;4.57;;;;;;;20.42;55.31;96776.72;4900418;29;20135;-82
2022/08/31 01:28:05;;;;;;;6.63;4.85;;;;;;;20.41;55.40;96777.00;4900702;29;20088;-82
2022/08/31 01:30:34;;;;;;;5.90;4.72;;;;;;;20.36;55.72;96770.56;4900146;29;20049;-82
2022/08/31 01:33:02;;;;;;;9.52;5.00;;;;;;;20.34;55.39;96771.84;4900292;29;20060;-82
2022/08/31 01:35:30;;;;;;;7.35;5.45;;;;;;;20.32;55.96;96773.94;4900488;29;20064;-82
2022/08/31 01:37:59;;;;;;;10.15;5.03;;;;;;;20.30;56.55;96774.16;4900367;29;20100;-82
2022/08/31 01:40:33;;;;;;;6.38;4.30;;;;;;;20.29;57.07;96777.03;4899706;29;20571;-82
2022/08/31 01:43:00;;;;;;;4.68;4.25;;;;;;;20.31;58.11;96769.66;4899893;29;20089;-82
2022/08/31 01:45:29;;;;;;;6.57;5.10;;;;;;;20.30;57.14;96778.66;4900031;29;20081;-82
2022/08/31 01:47:58;;;;;;;5.65;4.97;;;;;;;20.32;57.96;96776.59;4900270;29;20065;-82
2022/08/31 01:50:26;;;;;;;5.78;4.40;;;;;;;20.36;59.71;96775.84;4899556;29;20055;-82
2022/08/31 01:52:54;;;;;;;6.95;4.93;;;;;;;20.40;59.08;96772.72;4899874;29;20559;-82
2022/08/31 01:55:23;;;;;;;7.10;5.38;;;;;;;20.39;58.17;96766.63;4899999;29;20056;-82
2022/08/31 01:57:50;;;;;;;8.00;4.90;;;;;;;20.42;59.18;96768.78;4900048;29;20518;-82
2022/08/31 02:00:18;;;;;;;5.93;4.78;;;;;;;20.46;59.25;96772.56;4899629;29;20116;-82
2022/08/31 02:02:46;;;;;;;5.80;5.15;;;;;;;20.46;57.78;96775.22;4900065;29;20087;-82
2022/08/31 02:05:14;;;;;;;5.07;4.57;;;;;;;20.48;60.75;96769.69;4899848;29;20056;-82
2022/08/31 02:07:42;;;;;;;6.47;4.72;;;;;;;20.50;60.61;96765.75;4899861;29;20052;-82
2022/08/31 02:10:09;;;;;;;6.25;4.25;;;;;;;20.48;57.91;96767.81;4899665;29;20460;-82
2022/08/31 02:12:38;;;;;;;5.20;4.70;;;;;;;20.43;56.99;96765.09;4899694;29;20384;-82
2022/08/31 02:15:07;;;;;;;8.10;4.70;;;;;;;20.44;59.31;96771.19;4899511;29;20107;-82
2022/08/31 02:17:35;;;;;;;8.18;4.82;;;;;;;20.43;59.36;96770.41;4899378;29;20049;-82
2022/08/31 02:20:05;;;;;;;7.13;4.85;;;;;;;20.39;57.29;96763.97;4899651;29;20121;-82
2022/08/31 02:22:33;;;;;;;5.18;4.55;;;;;;;20.40;60.32;96762.13;4901581;29;20475;-82
2022/08/31 02:25:00;;;;;;;8.57;4.95;;;;;;;20.37;58.38;96764.22;4899502;29;20104;-82
2022/08/31 02:27:28;;;;;;;6.07;4.78;;;;;;;20.32;57.25;96760.69;4911151;29;20080;-82
2022/08/31 02:29:57;;;;;;;5.63;5.10;;;;;;;20.26;57.53;96767.72;4920767;29;20051;-82
2022/08/31 02:32:25;;;;;;;7.40;4.60;;;;;;;20.23;57.79;96764.78;4914209;29;20060;-82
2022/08/31 02:34:52;;;;;;;6.47;4.95;;;;;;;20.20;57.90;96762.59;4902828;29;20139;-82
2022/08/31 02:37:20;;;;;;;7.88;4.85;;;;;;;20.17;58.30;96759.38;4902114;29;20087;-82
2022/08/31 02:39:49;;;;;;;7.05;4.80;;;;;;;20.16;57.68;96762.28;4900314;29;20081;-82
2022/08/31 02:42:16;;;;;;;7.20;4.43;;;;;;;20.16;58.89;96757.78;4899116;29;20069;-82
2022/08/31 02:44:45;;;;;;;6.20;5.57;;;;;;;20.19;60.24;96761.00;4899317;29;20056;-82
2022/08/31 02:47:14;;;;;;;6.05;5.03;;;;;;;20.19;58.29;96761.00;4899570;29;20052;-82
2022/08/31 02:49:41;;;;;;;5.78;4.70;;;;;;;20.17;58.44;96764.66;4902130;29;20161;-82
2022/08/31 02:52:09;;;;;;;5.10;4.60;;;;;;;20.23;61.63;96762.94;4903191;29;20086;-82
2022/08/31 02:54:37;;;;;;;5.28;4.70;;;;;;;20.24;59.92;96764.53;4902541;29;20056;-82
2022/08/31 02:57:05;;;;;;;7.80;5.40;;;;;;;20.25;59.64;96771.44;4898609;29;20475;-82
2022/08/31 02:59:33;;;;;;;5.80;5.10;;;;;;;20.26;60.50;96769.59;4898590;29;20061;-82
2022/08/31 03:02:00;;;;;;;5.38;4.78;;;;;;;20.28;60.55;96767.50;4898511;29;20052;-82
2022/08/31 03:04:30;;;;;;;7.82;5.28;;;;;;;20.26;58.25;96774.88;4898682;29;20052;-82
2022/08/31 03:06:58;;;;;;;8.73;5.35;;;;;;;20.25;60.13;96771.44;4898934;29;20052;-82
2022/08/31 03:09:27;;;;;;;9.80;5.38;;;;;;;20.25;58.54;96781.25;4899059;29;20132;-82
2022/08/31 03:11:54;;;;;;;7.03;4.80;;;;;;;20.24;60.42;96774.31;4897959;29;20132;-82
2022/08/31 03:14:22;;;;;;;7.40;5.63;;;;;;;20.27;59.90;96779.13;4919154;29;20044;-82
2022/08/31 03:16:49;;;;;;;5.68;5.18;;;;;;;20.29;59.72;96787.63;4921948;29;20038;-82
2022/08/31 03:19:18;;;;;;;5.90;5.30;;;;;;;20.31;59.44;96788.22;4910817;29;20131;-82
2022/08/31 03:21:48;;;;;;;7.50;5.15;;;;;;;20.31;60.70;96788.22;4899439;29;20091;-82
2022/08/31 03:24:23;;;;;;;7.13;5.22;;;;;;;20.32;60.05;96797.78;4899270;29;20555;-82
2022/08/31 03:26:53;;;;;;;8.52;4.70;;;;;;;20.32;59.11;96803.88;4899025;29;20076;-82
2022/08/31 03:29:21;;;;;;;5.68;5.10;;;;;;;20.32;59.27;96808.38;4898949;29;20116;-82
2022/08/31 03:31:49;;;;;;;5.10;4.60;;;;;;;20.29;59.24;96800.88;4898354;29;20045;-82
2022/08/31 03:34:16;;;;;;;7.22;5.03;;;;;;;20.25;59.48;96816.47;4898402;29;20058;-83
2022/08/31 03:36:44;;;;;;;6.32;5.20;;;;;;;20.21;58.72;96814.53;4898301;29;20076;-82
2022/08/31 03:39:13;;;;;;;7.15;5.22;;;;;;;20.16;59.66;96816.06;4898565;29;20080;-82
2022/08/31 03:41:40;;;;;;;10.68;5.28;;;;;;;20.20;60.84;96826.16;4897330;29;20048;-83
2022/08/31 03:44:08;;;;;;;6.93;4.78;;;;;;;20.20;59.93;96815.56;4898407;29;20049;-82
2022/08/31 03:46:36;;;;;;;7.20;5.28;;;;;;;20.16;59.55;96829.28;4898271;29;20081;-82
2022/08/31 03:49:05;;;;;;;6.25;4.93;;;;;;;20.13;60.96;96829.75;4898105;29;20151;-82
2022/08/31 03:51:32;;;;;;;7.15;4.60;;;;;;;20.16;62.35;96831.94;4897921;29;20135;-82
2022/08/31 03:54:00;;;;;;;5.93;5.03;;;;;;;20.15;61.12;96835.63;4898312;29;20052;-82
2022/08/31 03:56:29;;;;;;;5.18;4.68;;;;;;;20.15;62.34;96840.91;4898330;29;20083;-82
2022/08/31 03:58:57;;;;;;;6.32;5.05;;;;;;;20.14;63.27;96844.63;4898359;29;20143;-82
2022/08/31 04:01:24;;;;;;;7.82;6.18;;;;;;;20.13;61.79;96848.28;4898072;29;20503;-82
2022/08/31 04:03:52;;;;;;;6.80;5.43;;;;;;;20.09;60.60;96847.16;4898117;29;20522;-82
2022/08/31 04:06:20;;;;;;;8.02;5.85;;;;;;;20.06;61.38;96847.63;4898047;29;20087;-82
2022/08/31 04:08:48;;;;;;;7.68;5.10;;;;;;;20.05;61.84;96855.81;4897968;29;20084;-82
2022/08/31 04:11:18;;;;;;;8.65;5.35;;;;;;;20.01;60.12;96858.13;4897660;29;20479;-82
2022/08/31 04:14:07;;;;;;;6.03;5.38;;;;;;;19.91;59.69;96845.50;4897739;29;20048;-82
2022/08/31 04:16:40;;;;;;;6.63;5.65;;;;;;;19.83;59.86;96847.69;4897717;29;20740;-82
2022/08/31 04:19:08;;;;;;;6.82;5.75;;;;;;;19.75;59.84;96851.53;4897735;29;20503;-82
2022/08/31 04:21:36;;;;;;;7.43;5.97;;;;;;;19.69;59.81;96845.31;4897291;29;20547;-82
2022/08/31 04:24:04;;;;;;;8.27;5.78;;;;;;;19.65;60.41;96849.44;4897846;29;20108;-82
2022/08/31 04:26:33;;;;;;;6.03;5.20;;;;;;;19.68;62.24;96851.63;4897876;29;20116;-82
2022/08/31 04:29:06;;;;;;;8.23;5.32;;;;;;;19.77;64.77;96854.75;4897810;29;20124;-82
2022/08/31 04:31:41;;;;;;;9.50;6.13;;;;;;;19.73;60.82;96849.09;4897210;29;20128;-82
2022/08/31 04:34:08;;;;;;;10.65;5.88;;;;;;;19.69;61.17;96849.78;4897472;29;20511;-82
2022/08/31 04:36:37;;;;;;;11.68;5.90;;;;;;;19.63;60.99;96854.16;4897323;29;20140;-82
2022/08/31 04:39:06;;;;;;;8.40;5.47;;;;;;;19.57;60.92;96857.75;4897651;29;20147;-82
2022/08/31 04:41:37;;;;;;;12.40;6.13;;;;;;;19.52;61.02;96857.63;4897723;29;20477;-82
2022/08/31 04:44:05;;;;;;;9.27;5.20;;;;;;;19.51;61.14;96850.75;4897433;29;20430;-82
2022/08/31 04:46:36;;;;;;;7.55;5.60;;;;;;;19.51;61.46;96856.81;4897771;29;20075;-82
2022/08/31 04:49:06;;;;;;;7.25;5.53;;;;;;;19.53;61.52;96853.97;4897427;29;20468;-82
2022/08/31 04:51:35;;;;;;;7.32;5.90;;;;;;;19.54;61.15;96861.66;4897258;29;20048;-82
2022/08/31 04:54:05;;;;;;;7.20;5.75;;;;;;;19.54;60.95;96866.13;4900643;29;20500;-82
2022/08/31 04:56:35;;;;;;;7.07;5.50;;;;;;;19.50;60.93;96867.63;4900808;29;20075;-82
2022/08/31 04:59:06;;;;;;;7.88;6.13;;;;;;;19.46;61.24;96859.38;4901316;29;20444;-82
2022/08/31 05:01:37;;;;;;;7.22;4.82;;;;;;;19.46;62.10;96859.38;4900395;29;20048;-82
2022/08/31 05:04:13;;;;;;;9.23;5.88;;;;;;;19.51;63.08;96864.75;4900847;29;20518;-82
2022/08/31 05:06:42;;;;;;;11.93;6.35;;;;;;;19.52;61.66;96860.28;4900605;29;20529;-82
2022/08/31 05:09:14;;;;;;;10.60;6.28;;;;;;;19.50;61.42;96854.41;4900602;29;20053;-82
2022/08/31 05:11:42;;;;;;;8.80;5.63;;;;;;;19.49;63.14;96856.25;4900416;29;20127;-82
2022/08/31 05:14:10;;;;;;;10.15;6.35;;;;;;;19.50;62.65;96843.81;4900469;29;20056;-82
2022/08/31 05:16:39;;;;;;;9.05;6.40;;;;;;;19.52;62.18;96862.91;4900316;29;20053;-82
2022/08/31 05:19:07;;;;;;;9.02;6.97;;;;;;;19.53;62.05;96854.75;4900499;29;20056;-82
2022/08/31 05:21:38;;;;;;;15.48;10.25;;;;;;;19.58;62.92;96862.00;4899920;29;20056;-82
2022/08/31 05:24:08;;;;;;;11.95;6.47;;;;;;;19.57;61.71;96860.41;4900357;29;20056;-82
2022/08/31 05:26:40;;;;;;;9.07;7.15;;;;;;;19.59;64.52;96863.63;4899989;29;20515;-82
2022/08/31 05:29:08;;;;;;;;;;;;;;;19.63;62.45;96864.75;4900655;29;20059;-82
2022/08/31 05:31:37;;;;;;;8.75;6.63;;;;;;;19.60;61.90;96864.41;4900423;29;19927;-82
2022/08/31 05:34:06;;;;;;;9.15;6.20;;;;;;;19.57;61.83;96857.75;4900136;29;20101;-82
2022/08/31 05:36:34;;;;;;;10.32;5.88;;;;;;;19.59;61.61;96863.63;4903690;29;20057;-82
2022/08/31 05:39:05;;;;;;;7.28;5.90;;;;;;;19.61;62.73;96863.38;4903958;29;20103;-82
2022/08/31 05:41:32;;;;;;;6.28;5.68;;;;;;;19.67;65.15;96865.88;4902428;29;20052;-82
2022/08/31 05:44:02;;;;;;;8.40;5.95;;;;;;;19.71;63.76;96871.56;4910905;29;20146;-82
2022/08/31 05:46:30;;;;;;;7.47;5.80;;;;;;;19.69;62.59;96868.31;4919912;29;20076;-82
2022/08/31 05:48:58;;;;;;;6.43;5.75;;;;;;;19.68;63.40;96872.81;4916233;29;20060;-83
2022/08/31 05:51:26;;;;;;;6.35;5.82;;;;;;;19.70;64.33;96878.69;4907863;29;20056;-82
2022/08/31 05:53:54;;;;;;;6.78;5.63;;;;;;;19.68;63.24;96882.59;4906539;29;20044;-82
2022/08/31 05:56:24;;;;;;;8.63;6.78;;;;;;;19.66;62.48;96877.53;4905294;29;20059;-82
2022/08/31 05:58:53;;;;;;;6.68;5.55;;;;;;;19.64;62.93;96876.94;4906204;29;20044;-83
2022/08/31 06:01:25;;;;;;;16.50;6.15;;;;;;;19.62;62.15;96883.50;4906367;29;20112;-82
2022/08/31 06:03:53;;;;;;;7.63;6.30;;;;;;;19.61;62.99;96882.69;4903855;29;20052;-82
2022/08/31 06:06:21;;;;;;;10.93;6.15;;;;;;;19.63;62.80;96887.75;4902272;29;20477;-83
2022/08/31 06:08:50;;;;;;;10.32;6.57;;;;;;;19.63;62.24;96888.56;4902024;29;20481;-82
2022/08/31 06:11:22;;;;;;;8.65;5.97;;;;;;;19.61;61.54;96887.97;4901947;29;20048;-82
2022/08/31 06:13:53;;;;;;;8.90;6.30;;;;;;;19.63;63.90;96891.19;4902196;29;20135;-82
2022/08/31 06:16:22;;;;;;;10.18;5.85;;;;;;;19.62;63.02;96894.91;4902043;29;20475;-82
2022/08/31 06:18:50;;;;;;;6.93;5.75;;;;;;;19.62;62.47;96894.09;4902785;29;20144;-82
2022/08/31 06:21:20;;;;;;;7.22;5.25;;;;;;;19.59;62.56;96895.38;4902154;29;20120;-82
2022/08/31 06:23:50;;;;;;;8.38;5.75;;;;;;;19.59;62.01;96899.84;4898856;29;20100;-82
2022/08/31 06:26:20;;;;;;;10.90;5.95;;;;;;;19.59;62.58;96894.53;4898894;29;20099;-82
2022/08/31 06:28:49;;;;;;;7.38;5.40;;;;;;;19.61;63.11;96895.91;4921320;29;20044;-82
2022/08/31 06:31:23;;;;;;;11.60;7.40;;;;;;;19.61;61.46;96898.56;4922097;29;20060;-82
2022/08/31 06:33:51;;;;;;;9.38;6.05;;;;;;;19.58;61.90;96891.09;4914512;29;20052;-82
2022/08/31 06:36:21;;;;;;;6.68;5.70;;;;;;;19.61;63.09;96892.47;4899755;29;20048;-82
2022/08/31 06:38:49;;;;;;;7.35;5.80;;;;;;;19.61;62.66;96890.63;4899299;29;20139;-82
2022/08/31 06:41:19;;;;;;;8.50;6.72;;;;;;;19.62;62.81;96894.91;4898999;29;20412;-82
2022/08/31 06:43:47;;;;;;;10.82;6.40;;;;;;;19.63;62.13;96893.84;4900821;29;20071;-82
2022/08/31 06:46:16;;;;;;;9.25;5.95;;;;;;;19.64;63.11;96908.69;4916541;29;20064;-82
2022/08/31 06:48:45;;;;;;;8.10;6.22;;;;;;;19.65;61.94;96899.72;4920068;29;20112;-82
2022/08/31 06:51:13;;;;;;;10.18;7.03;;;;;;;19.64;61.77;96914.00;4909232;29;20400;-82
2022/08/31 06:53:42;;;;;;;7.13;5.60;;;;;;;19.66;62.67;96914.56;4906815;29;20486;-83
2022/08/31 06:56:15;;;;;;;8.48;6.10;;;;;;;19.66;62.53;96917.22;4900669;29;20095;-82
2022/08/31 06:58:48;;;;;;;8.27;6.97;;;;;;;19.66;61.32;96911.94;4900575;29;20061;-83
2022/08/31 07:01:25;;;;;;;7.20;5.63;;;;;;;19.61;61.22;96914.44;4904976;29;20063;-82
2022/08/31 07:04:06;;;;;;;14.20;6.18;;;;;;;19.58;61.89;96922.84;4899808;29;20139;-82
2022/08/31 07:06:36;;;;;;;15.70;6.72;;;;;;;19.56;61.11;96919.63;4901300;29;20060;-82
2022/08/31 07:09:06;;;;;;;8.10;6.65;;;;;;;19.57;61.74;96921.25;4898425;29;20056;-82
2022/08/31 07:11:37;;;;;;;9.07;6.43;;;;;;;19.57;61.26;96918.63;4898003;29;20053;-82
2022/08/31 07:14:12;;;;;;;8.85;6.25;;;;;;;19.58;61.76;96919.41;4897794;29;20531;-82
2022/08/31 07:16:44;;;;;;;12.07;5.88;;;;;;;19.59;61.52;96918.34;4898568;29;20056;-82
2022/08/31 07:19:15;;;;;;;8.35;6.30;;;;;;;19.61;61.43;96917.09;4898554;29;20049;-80
2022/08/31 07:21:45;;;;;;;7.93;6.15;;;;;;;19.65;61.99;96918.25;4898921;29;20056;-80
2022/08/31 07:24:16;;;;;;;8.38;6.15;;;;;;;19.71;61.15;96921.84;4899016;29;20092;-83
2022/08/31 07:26:46;;;;;;;7.30;6.30;;;;;;;19.72;61.83;96924.28;4898182;29;20096;-83
2022/08/31 07:29:16;;;;;;;8.30;6.47;;;;;;;19.78;61.07;96932.31;4898253;29;20403;-82
2022/08/31 07:31:45;;;;;;;9.52;6.53;;;;;;;19.80;60.91;96925.75;4898114;29;20116;-83
2022/08/31 07:34:15;;;;;;;6.85;6.15;;;;;;;19.82;62.00;96928.16;4898138;29;20048;-83
2022/08/31 07:42:17;;;;;;;8.82;6.50;;;;;;;19.82;60.72;96936.09;4897919;29;20087;-83
2022/08/31 07:44:48;;;;;;;7.53;6.32;;;;;;;19.81;62.14;96937.13;4898432;29;20091;-83
2022/08/31 07:47:20;;;;;;;8.98;5.65;;;;;;;19.85;61.28;96940.91;4898365;29;20522;-83
2022/08/31 07:49:52;;;;;;;7.20;5.95;;;;;;;19.85;61.10;96930.34;4898545;29;20076;-83
2022/08/31 07:52:23;;;;;;;9.95;6.78;;;;;;;19.86;60.89;96942.56;4897941;29;20128;-83
2022/08/31 07:54:52;;;;;;;8.25;6.20;;;;;;;19.86;60.95;96937.25;4898168;29;20072;-83
2022/08/31 07:57:24;;;;;;;7.93;6.55;;;;;;;19.85;60.89;96939.06;4898109;29;20160;-83
2022/08/31 07:59:54;;;;;;;7.72;5.95;;;;;;;19.88;60.56;96945.78;4898085;29;20108;-83
2022/08/31 08:02:22;;;;;;;7.53;6.45;;;;;;;19.88;60.62;96935.97;4900348;29;20061;-83
2022/08/31 08:04:52;;;;;;;7.60;6.28;;;;;;;19.89;60.57;96936.78;4899793;29;20055;-83
2022/08/31 08:07:19;;;;;;;7.72;6.10;;;;;;;19.92;61.60;96936.31;4898278;29;20136;-83
2022/08/31 08:09:48;;;;;;;9.35;6.72;;;;;;;19.93;60.93;96943.22;4898059;29;20084;-83
2022/08/31 08:12:17;;;;;;;8.88;6.43;;;;;;;19.94;60.79;96948.28;4897736;29;20052;-83
2022/08/31 08:14:48;;;;;;;7.80;6.38;;;;;;;19.96;61.42;96948.88;4897614;29;20056;-83
2022/08/31 08:17:16;;;;;;;8.00;6.10;;;;;;;19.96;61.65;96953.34;4897872;29;20582;-83
2022/08/31 08:19:44;;;;;;;8.77;6.35;;;;;;;19.98;62.00;96955.75;4897935;29;20503;-83
2022/08/31 08:22:12;;;;;;;8.50;5.93;;;;;;;20.00;61.39;96970.38;4897752;29;20426;-83
2022/08/31 08:25:05;;;;;;;9.02;6.68;;;;;;;19.99;61.73;96955.53;4897978;29;20063;-83
2022/08/31 08:27:34;;;;;;;8.68;6.97;;;;;;;19.96;61.10;96967.41;4899193;29;20052;-83
2022/08/31 08:30:02;;;;;;;9.02;6.50;;;;;;;19.95;60.96;96967.63;4901458;29;20052;-83
2022/08/31 08:32:30;;;;;;;8.23;6.60;;;;;;;19.95;61.32;96967.63;4901557;29;20088;-83
2022/08/31 08:34:58;;;;;;;9.15;6.85;;;;;;;19.94;60.95;96981.88;4901032;29;20113;-83
2022/08/31 08:37:27;;;;;;;9.35;6.88;;;;;;;19.94;60.95;96979.25;4901658;29;20056;-83
2022/08/31 08:40:27;;;;;;;8.55;6.72;;;;;;;19.91;60.91;96987.66;4901286;29;20426;-83
2022/08/31 08:42:54;;;;;;;7.50;6.05;;;;;;;19.89;60.85;96979.94;4901815;29;20060;-83
2022/08/31 08:45:23;;;;;;;6.88;5.97;;;;;;;19.90;61.22;96986.06;4901289;29;20156;-83
2022/08/31 08:47:53;;;;;;;9.45;6.32;;;;;;;19.91;62.87;96983.16;4901554;29;20064;-83
2022/08/31 08:50:25;;;;;;;7.90;5.93;;;;;;;19.94;62.03;96982.72;4901134;29;20080;-83
2022/08/31 08:52:56;;;;;;;10.88;6.80;;;;;;;19.98;62.25;96990.19;4909338;29;20116;-83
2022/08/31 08:55:33;;;;;;;6.60;5.88;;;;;;;19.97;61.77;96989.38;4901135;29;20073;-83
2022/08/31 08:58:04;;;;;;;8.38;6.63;;;;;;;19.97;61.80;96986.72;4901040;29;20120;-83
2022/08/31 09:00:33;;;;;;;8.67;6.90;;;;;;;19.98;61.31;96990.97;4918641;29;20065;-82
2022/08/31 09:03:11;;;;;;;11.68;6.63;;;;;;;19.98;61.22;97001.56;4925111;29;20040;-82
2022/08/31 09:05:55;;;;;;;11.57;6.93;;;;;;;20.01;62.28;97003.78;4910523;29;20143;-83
2022/08/31 09:08:40;;;;;;;9.68;6.13;;;;;;;20.02;61.56;97000.06;4904245;29;20057;-83
2022/08/31 09:11:16;;;;;;;9.85;6.40;;;;;;;20.03;60.62;96998.22;4901724;29;20077;-83
2022/08/31 09:13:55;;;;;;;9.98;7.07;;;;;;;20.00;60.33;97004.78;4901119;29;20059;-83
2022/08/31 09:16:39;;;;;;;10.88;6.47;;;;;;;19.95;60.20;96997.53;4901055;29;20099;-83
2022/08/31 09:19:10;;;;;;;9.25;5.85;;;;;;;19.96;60.94;97001.00;4901273;29;20503;-83
2022/08/31 09:32:24;;;;;;;8.98;6.03;;;;;;;20.06;60.64;96982.69;5285362;23;20151;-83
2022/08/31 09:35:00;;;;;;;10.73;6.75;;;;;;;20.07;60.61;96991.44;4904394;29;20049;-83
2022/08/31 09:37:44;;;;;;;8.57;6.25;;;;;;;20.07;60.56;96992.25;4903836;29;20120;-83
2022/08/31 09:40:22;;;;;;;7.05;6.35;;;;;;;20.08;60.58;96991.19;4902692;29;20116;-84
2022/08/31 09:43:08;;;;;;;7.40;6.05;;;;;;;20.13;61.50;96986.00;4885638;29;20053;-84
2022/08/31 09:45:55;;;;;;;9.15;6.60;;;;;;;20.15;60.71;96994.53;4869076;29;20080;-83
2022/08/31 09:48:44;;;;;;;7.47;5.93;;;;;;;20.20;60.61;96990.38;4885036;29;20518;-83
2022/08/31 09:51:23;;;;;;;7.93;5.43;;;;;;;20.23;60.86;96987.28;4884467;29;20144;-83
2022/08/31 09:56:54;;;;;;;9.40;6.00;;;;;;;20.31;60.32;96990.38;4884439;29;20139;-83
2022/08/31 09:59:36;;;;;;;8.50;6.53;;;;;;;20.35;61.04;96990.69;4868187;29;20052;-82
2022/08/31 10:02:12;;;;;;;8.05;6.68;;;;;;;20.36;60.72;96994.97;4889858;29;20060;-83
2022/08/31 10:04:54;;;;;;;7.00;6.25;;;;;;;20.39;60.34;96991.84;4882757;29;20057;-83
2022/08/31 10:07:42;;;;;;;9.85;6.65;;;;;;;20.44;59.67;96991.91;4889732;29;20057;-83
2022/08/31 10:10:26;;;;;;;8.38;6.35;;;;;;;20.47;59.74;96995.97;4884315;29;20061;-83
2022/08/31 10:13:04;;;;;;;8.48;5.90;;;;;;;20.51;59.80;96997.91;4883478;29;20061;-84
2022/08/31 10:15:41;;;;;;;7.70;5.75;;;;;;;20.58;60.97;96995.94;4882382;29;20076;-84
2022/08/31 10:18:16;;;;;;;15.48;6.05;;;;;;;20.63;59.33;96994.44;4884001;29;20503;-83
2022/08/31 10:20:58;;;;;;;9.38;6.45;;;;;;;20.63;59.21;96989.16;4866268;29;20067;-83
2022/08/31 10:23:34;;;;;;;8.50;5.53;;;;;;;20.64;60.14;96991.56;4882710;29;20056;-83
2022/08/31 10:26:16;;;;;;;8.05;7.25;;;;;;;20.64;59.14;96985.44;4883140;29;20140;-83
2022/08/31 10:28:51;;;;;;;10.77;6.70;;;;;;;20.66;59.50;96983.34;4883058;29;20053;-83
2022/08/31 10:31:28;;;;;;;7.03;6.10;;;;;;;20.70;59.38;96987.16;4883589;29;20053;-83
2022/08/31 10:36:58;;;;;;;9.80;6.32;;;;;;;20.76;59.27;96986.22;4883149;29;20053;-83
2022/08/31 10:39:35;;;;;;;5.60;5.10;;;;;;;20.79;59.79;96991.03;4882181;29;20099;-83
2022/08/31 10:42:11;;;;;;;6.90;6.05;;;;;;;20.84;59.14;96983.19;4882856;29;20084;-83
2022/08/31 10:44:47;;;;;;;7.78;6.60;;;;;;;20.86;58.80;96988.22;4882510;29;20064;-83
2022/08/31 10:47:22;;;;;;;6.70;6.00;;;;;;;20.87;58.93;96985.34;4883171;29;20052;-83
2022/08/31 10:50:05;;;;;;;9.27;6.32;;;;;;;20.90;58.73;96984.88;4881960;29;20049;-83
2022/08/31 10:52:45;;;;;;;7.93;7.13;;;;;;;20.92;59.08;96977.47;4882843;29;20057;-83
2022/08/31 10:55:32;;;;;;;10.57;7.03;;;;;;;20.96;59.25;96978.59;4882666;29;20049;-83
2022/08/31 10:58:16;;;;;;;7.50;6.40;;;;;;;20.99;59.23;96980.81;4883075;29;20064;-84
2022/08/31 11:00:53;;;;;;;8.60;5.95;;;;;;;21.06;59.49;96977.19;4884606;29;20061;-84
2022/08/31 11:03:46;;;;;;;9.60;6.50;;;;;;;21.11;59.00;96980.72;4884116;29;20052;-83
2022/08/31 11:06:24;;;;;;;7.18;6.47;;;;;;;21.17;58.34;96979.78;4883650;29;20089;-83
2022/08/31 11:09:01;;;;;;;9.82;6.65;;;;;;;21.27;58.47;96979.13;4882539;29;20052;-83
2022/08/31 11:11:39;;;;;;;7.60;6.80;;;;;;;21.40;58.08;96985.97;4883271;29;20067;-83
2022/08/31 11:14:44;;;;;;;8.82;6.28;;;;;;;21.53;58.24;96988.31;4883790;29;20140;-83
2022/08/31 11:17:36;;;;;;;6.45;5.70;;;;;;;21.69;58.08;96991.19;4884660;29;20108;-84
2022/08/31 11:20:13;;;;;;;;;;;;;;;21.87;57.30;96990.16;4885253;29;20049;-83
2022/08/31 11:23:09;;;;;;;10.77;6.00;;;;;;;22.01;57.34;96978.91;4885048;29;19931;-83
2022/08/31 11:26:26;;;;;;;7.30;6.03;;;;;;;22.16;56.35;96988.16;4886587;29;20064;-83
2022/08/31 11:29:08;;;;;;;7.72;5.65;;;;;;;22.21;56.51;96990.84;4887665;29;20059;-83
2022/08/31 11:31:42;;;;;;;9.47;6.50;;;;;;;22.23;55.93;96988.00;4886631;29;20496;-84
2022/08/31 11:34:30;;;;;;;6.35;5.70;;;;;;;22.32;55.87;96979.34;4886191;29;20881;-83
2022/08/31 11:37:05;;;;;;;8.63;5.70;;;;;;;22.52;55.93;96977.97;4886562;29;20049;-83
2022/08/31 11:39:46;;;;;;;10.82;6.15;;;;;;;22.76;54.80;96978.50;4886027;29;20064;-84
2022/08/31 11:42:52;;;;;;;6.35;5.65;;;;;;;23.00;54.58;96981.69;4888335;29;20085;-83
2022/08/31 11:45:36;;;;;;;6.80;6.10;;;;;;;23.21;54.06;96980.00;4892789;29;20073;-84
2022/08/31 11:48:11;;;;;;;11.02;5.78;;;;;;;23.39;53.67;96979.63;4886894;29;20081;-83
2022/08/31 11:51:06;;;;;;;14.13;6.82;;;;;;;23.50;52.77;96977.03;4887094;29;20053;-83
2022/08/31 11:53:43;;;;;;;7.35;6.15;;;;;;;23.58;52.56;96979.25;4888017;29;20139;-84
2022/08/31 11:56:40;;;;;;;9.77;5.45;;;;;;;23.65;53.08;96964.63;4886796;29;20504;-84
2022/08/31 11:59:24;;;;;;;6.70;5.90;;;;;;;23.69;51.67;96975.59;4887802;29;20092;-83
2022/08/31 12:02:26;;;;;;;6.97;5.45;;;;;;;23.68;51.76;96974.00;4871650;29;20061;-84
2022/08/31 12:05:05;;;;;;;7.57;5.40;;;;;;;23.73;51.72;96976.69;4890693;29;20059;-84
2022/08/31 12:07:42;;;;;;;7.13;5.30;;;;;;;23.80;50.92;96977.28;4890198;29;20427;-83
2022/08/31 12:10:38;;;;;;;6.03;5.28;;;;;;;23.91;51.07;96972.81;4890792;29;20057;-83
2022/08/31 12:13:48;;;;;;;8.35;5.60;;;;;;;24.06;50.11;96972.09;4891318;29;20137;-84
2022/08/31 12:16:45;;;;;;;5.90;5.00;;;;;;;24.25;49.86;96967.94;4889251;29;20077;-84
2022/08/31 12:19:58;;;;;;;7.78;5.30;;;;;;;24.48;49.79;96968.56;4892765;29;20061;-83
2022/08/31 12:29:34;;;;;;;9.27;5.25;;;;;;;24.92;47.39;96962.78;4893885;29;20148;-83
2022/08/31 12:32:34;;;;;;;5.80;4.82;;;;;;;24.91;47.61;96961.19;4893724;29;20064;-83